sensor_id;sensor_type;location;lat;lon;timestamp;P1;durP1;ratioP1;P2;durP2;ratioP2
51838;SDS011;37886;53.174;6.368;2023-05-07T00:00:38;44.20;;;37.40;;
51838;SDS011;37886;53.174;6.368;2023-05-07T00:03:05;51.90;;;35.83;;
51838;SDS011;37886;53.174;6.368;2023-05-07T00:05:31;46.13;;;37.53;;
51838;SDS011;37886;53.174;6.368;2023-05-07T00:07:57;50.50;;;36.90;;
51838;SDS011;37886;53.174;6.368;2023-05-07T00:10:23;50.58;;;38.10;;
51838;SDS011;37886;53.174;6.368;2023-05-07T00:12:48;48.72;;;36.90;;
51838;SDS011;37886;53.174;6.368;2023-05-07T00:15:14;52.33;;;38.00;;
51838;SDS011;37886;53.174;6.368;2023-05-07T00:17:40;54.90;;;37.38;;
51838;SDS011;37886;53.174;6.368;2023-05-07T00:20:06;53.13;;;39.03;;
51838;SDS011;37886;53.174;6.368;2023-05-07T00:22:32;47.90;;;38.30;;
51838;SDS011;37886;53.174;6.368;2023-05-07T00:24:58;53.67;;;40.15;;
51838;SDS011;37886;53.174;6.368;2023-05-07T00:27:24;57.20;;;38.47;;
51838;SDS011;37886;53.174;6.368;2023-05-07T00:29:50;49.45;;;39.97;;
51838;SDS011;37886;53.174;6.368;2023-05-07T00:32:16;55.72;;;41.20;;
51838;SDS011;37886;53.174;6.368;2023-05-07T00:34:42;57.28;;;40.03;;
51838;SDS011;37886;53.174;6.368;2023-05-07T00:37:08;53.70;;;40.10;;
51838;SDS011;37886;53.174;6.368;2023-05-07T00:39:34;50.20;;;39.10;;
51838;SDS011;37886;53.174;6.368;2023-05-07T00:42:00;55.03;;;39.10;;
51838;SDS011;37886;53.174;6.368;2023-05-07T00:44:27;57.17;;;40.22;;
51838;SDS011;37886;53.174;6.368;2023-05-07T00:46:54;55.67;;;40.33;;
51838;SDS011;37886;53.174;6.368;2023-05-07T00:49:22;60.13;;;41.15;;
51838;SDS011;37886;53.174;6.368;2023-05-07T00:51:51;58.90;;;42.20;;
51838;SDS011;37886;53.174;6.368;2023-05-07T00:54:17;59.95;;;42.22;;
51838;SDS011;37886;53.174;6.368;2023-05-07T00:56:44;60.03;;;42.72;;
51838;SDS011;37886;53.174;6.368;2023-05-07T00:59:10;57.13;;;41.88;;
51838;SDS011;37886;53.174;6.368;2023-05-07T01:01:36;61.58;;;42.42;;
51838;SDS011;37886;53.174;6.368;2023-05-07T01:04:02;66.03;;;43.63;;
51838;SDS011;37886;53.174;6.368;2023-05-07T01:06:27;65.90;;;44.03;;
51838;SDS011;37886;53.174;6.368;2023-05-07T01:08:56;62.13;;;45.17;;
51838;SDS011;37886;53.174;6.368;2023-05-07T01:11:22;60.67;;;43.60;;
51838;SDS011;37886;53.174;6.368;2023-05-07T01:13:49;63.38;;;44.67;;
51838;SDS011;37886;53.174;6.368;2023-05-07T01:16:15;60.45;;;46.03;;
51838;SDS011;37886;53.174;6.368;2023-05-07T01:18:41;62.00;;;44.83;;
51838;SDS011;37886;53.174;6.368;2023-05-07T01:21:07;67.55;;;46.25;;
51838;SDS011;37886;53.174;6.368;2023-05-07T01:23:36;53.55;;;41.25;;
51838;SDS011;37886;53.174;6.368;2023-05-07T01:26:03;57.65;;;44.40;;
51838;SDS011;37886;53.174;6.368;2023-05-07T01:28:28;62.00;;;44.10;;
51838;SDS011;37886;53.174;6.368;2023-05-07T01:30:55;61.50;;;43.55;;
51838;SDS011;37886;53.174;6.368;2023-05-07T01:33:26;63.30;;;45.13;;
51838;SDS011;37886;53.174;6.368;2023-05-07T01:35:56;66.30;;;45.83;;
51838;SDS011;37886;53.174;6.368;2023-05-07T01:38:25;63.38;;;44.30;;
51838;SDS011;37886;53.174;6.368;2023-05-07T01:40:52;59.40;;;44.75;;
51838;SDS011;37886;53.174;6.368;2023-05-07T01:43:18;58.97;;;41.25;;
51838;SDS011;37886;53.174;6.368;2023-05-07T01:45:44;62.05;;;44.58;;
51838;SDS011;37886;53.174;6.368;2023-05-07T01:48:11;58.63;;;42.35;;
51838;SDS011;37886;53.174;6.368;2023-05-07T01:50:37;57.53;;;43.65;;
51838;SDS011;37886;53.174;6.368;2023-05-07T01:53:04;59.95;;;44.60;;
51838;SDS011;37886;53.174;6.368;2023-05-07T01:55:30;60.65;;;43.33;;
51838;SDS011;37886;53.174;6.368;2023-05-07T01:57:55;60.50;;;43.20;;
51838;SDS011;37886;53.174;6.368;2023-05-07T02:00:21;64.13;;;45.17;;
51838;SDS011;37886;53.174;6.368;2023-05-07T02:02:47;58.35;;;42.72;;
51838;SDS011;37886;53.174;6.368;2023-05-07T02:05:13;66.30;;;47.10;;
51838;SDS011;37886;53.174;6.368;2023-05-07T02:07:38;67.47;;;46.72;;
51838;SDS011;37886;53.174;6.368;2023-05-07T02:10:04;58.40;;;44.40;;
51838;SDS011;37886;53.174;6.368;2023-05-07T02:12:31;68.32;;;46.92;;
51838;SDS011;37886;53.174;6.368;2023-05-07T02:14:56;66.25;;;46.45;;
51838;SDS011;37886;53.174;6.368;2023-05-07T02:17:22;64.95;;;47.70;;
51838;SDS011;37886;53.174;6.368;2023-05-07T02:19:48;67.22;;;47.70;;
51838;SDS011;37886;53.174;6.368;2023-05-07T02:22:13;67.60;;;48.65;;
51838;SDS011;37886;53.174;6.368;2023-05-07T02:24:39;66.32;;;45.85;;
51838;SDS011;37886;53.174;6.368;2023-05-07T02:27:05;66.57;;;46.92;;
51838;SDS011;37886;53.174;6.368;2023-05-07T02:29:30;66.88;;;47.72;;
51838;SDS011;37886;53.174;6.368;2023-05-07T02:31:56;68.55;;;49.67;;
51838;SDS011;37886;53.174;6.368;2023-05-07T02:34:21;74.43;;;49.58;;
51838;SDS011;37886;53.174;6.368;2023-05-07T02:36:47;72.40;;;50.40;;
51838;SDS011;37886;53.174;6.368;2023-05-07T02:39:13;69.97;;;48.25;;
51838;SDS011;37886;53.174;6.368;2023-05-07T02:41:39;74.32;;;50.30;;
51838;SDS011;37886;53.174;6.368;2023-05-07T02:44:05;83.05;;;52.05;;
51838;SDS011;37886;53.174;6.368;2023-05-07T02:46:31;72.75;;;49.95;;
51838;SDS011;37886;53.174;6.368;2023-05-07T02:48:56;73.80;;;52.85;;
51838;SDS011;37886;53.174;6.368;2023-05-07T02:51:22;79.30;;;52.15;;
51838;SDS011;37886;53.174;6.368;2023-05-07T02:53:48;73.80;;;51.35;;
51838;SDS011;37886;53.174;6.368;2023-05-07T02:56:14;77.20;;;51.83;;
51838;SDS011;37886;53.174;6.368;2023-05-07T02:58:40;76.13;;;50.55;;
51838;SDS011;37886;53.174;6.368;2023-05-07T03:01:07;83.55;;;51.22;;
51838;SDS011;37886;53.174;6.368;2023-05-07T03:03:33;82.15;;;51.50;;
51838;SDS011;37886;53.174;6.368;2023-05-07T03:05:59;77.07;;;51.88;;
51838;SDS011;37886;53.174;6.368;2023-05-07T03:08:25;77.60;;;51.70;;
51838;SDS011;37886;53.174;6.368;2023-05-07T03:10:51;80.30;;;52.95;;
51838;SDS011;37886;53.174;6.368;2023-05-07T03:13:17;83.53;;;52.45;;
51838;SDS011;37886;53.174;6.368;2023-05-07T03:15:43;84.95;;;52.80;;
51838;SDS011;37886;53.174;6.368;2023-05-07T03:18:08;85.88;;;53.22;;
51838;SDS011;37886;53.174;6.368;2023-05-07T03:20:34;89.97;;;55.70;;
51838;SDS011;37886;53.174;6.368;2023-05-07T03:23:01;89.00;;;54.53;;
51838;SDS011;37886;53.174;6.368;2023-05-07T03:25:27;89.50;;;57.05;;
51838;SDS011;37886;53.174;6.368;2023-05-07T03:27:53;89.60;;;56.75;;
51838;SDS011;37886;53.174;6.368;2023-05-07T03:30:18;82.20;;;53.50;;
51838;SDS011;37886;53.174;6.368;2023-05-07T03:32:45;90.05;;;54.20;;
51838;SDS011;37886;53.174;6.368;2023-05-07T03:35:10;90.10;;;54.72;;
51838;SDS011;37886;53.174;6.368;2023-05-07T03:37:37;86.15;;;55.75;;
51838;SDS011;37886;53.174;6.368;2023-05-07T03:40:03;86.68;;;56.03;;
51838;SDS011;37886;53.174;6.368;2023-05-07T03:42:29;95.18;;;57.33;;
51838;SDS011;37886;53.174;6.368;2023-05-07T03:44:55;89.93;;;55.55;;
51838;SDS011;37886;53.174;6.368;2023-05-07T03:47:21;92.57;;;57.10;;
51838;SDS011;37886;53.174;6.368;2023-05-07T03:49:46;95.50;;;57.50;;
51838;SDS011;37886;53.174;6.368;2023-05-07T03:52:14;96.53;;;57.35;;
51838;SDS011;37886;53.174;6.368;2023-05-07T03:54:39;92.38;;;56.25;;
51838;SDS011;37886;53.174;6.368;2023-05-07T03:57:05;88.80;;;55.97;;
51838;SDS011;37886;53.174;6.368;2023-05-07T03:59:31;89.07;;;54.90;;
51838;SDS011;37886;53.174;6.368;2023-05-07T04:01:56;97.18;;;58.30;;
51838;SDS011;37886;53.174;6.368;2023-05-07T04:04:23;89.45;;;54.58;;
51838;SDS011;37886;53.174;6.368;2023-05-07T04:06:48;90.65;;;54.58;;
51838;SDS011;37886;53.174;6.368;2023-05-07T04:09:14;86.85;;;54.15;;
51838;SDS011;37886;53.174;6.368;2023-05-07T04:11:40;84.03;;;53.10;;
51838;SDS011;37886;53.174;6.368;2023-05-07T04:14:06;89.22;;;55.67;;
51838;SDS011;37886;53.174;6.368;2023-05-07T04:16:31;92.05;;;57.22;;
51838;SDS011;37886;53.174;6.368;2023-05-07T04:18:57;88.70;;;55.22;;
51838;SDS011;37886;53.174;6.368;2023-05-07T04:21:23;86.05;;;54.92;;
51838;SDS011;37886;53.174;6.368;2023-05-07T04:23:48;84.05;;;54.53;;
51838;SDS011;37886;53.174;6.368;2023-05-07T04:26:14;96.57;;;56.75;;
51838;SDS011;37886;53.174;6.368;2023-05-07T04:28:41;87.78;;;56.10;;
51838;SDS011;37886;53.174;6.368;2023-05-07T04:31:07;84.82;;;54.80;;
51838;SDS011;37886;53.174;6.368;2023-05-07T04:33:33;92.15;;;57.03;;
51838;SDS011;37886;53.174;6.368;2023-05-07T04:36:02;79.60;;;54.03;;
51838;SDS011;37886;53.174;6.368;2023-05-07T04:38:32;87.20;;;54.50;;
51838;SDS011;37886;53.174;6.368;2023-05-07T04:41:04;86.07;;;54.92;;
51838;SDS011;37886;53.174;6.368;2023-05-07T04:43:31;87.10;;;54.63;;
51838;SDS011;37886;53.174;6.368;2023-05-07T04:45:56;87.95;;;56.90;;
51838;SDS011;37886;53.174;6.368;2023-05-07T04:48:22;87.30;;;55.88;;
51838;SDS011;37886;53.174;6.368;2023-05-07T04:50:48;86.60;;;54.47;;
51838;SDS011;37886;53.174;6.368;2023-05-07T04:53:14;86.70;;;53.83;;
51838;SDS011;37886;53.174;6.368;2023-05-07T04:55:40;84.55;;;55.38;;
51838;SDS011;37886;53.174;6.368;2023-05-07T04:58:06;86.82;;;55.10;;
51838;SDS011;37886;53.174;6.368;2023-05-07T05:00:32;85.68;;;53.95;;
51838;SDS011;37886;53.174;6.368;2023-05-07T05:02:58;86.30;;;52.90;;
51838;SDS011;37886;53.174;6.368;2023-05-07T05:05:24;84.82;;;54.88;;
51838;SDS011;37886;53.174;6.368;2023-05-07T05:07:49;81.35;;;52.30;;
51838;SDS011;37886;53.174;6.368;2023-05-07T05:10:16;84.78;;;55.20;;
51838;SDS011;37886;53.174;6.368;2023-05-07T05:12:42;78.00;;;52.90;;
51838;SDS011;37886;53.174;6.368;2023-05-07T05:15:11;75.38;;;50.97;;
51838;SDS011;37886;53.174;6.368;2023-05-07T05:17:38;78.40;;;51.38;;
51838;SDS011;37886;53.174;6.368;2023-05-07T05:20:04;71.40;;;47.75;;
51838;SDS011;37886;53.174;6.368;2023-05-07T05:22:31;79.57;;;51.75;;
51838;SDS011;37886;53.174;6.368;2023-05-07T05:24:57;74.93;;;51.22;;
51838;SDS011;37886;53.174;6.368;2023-05-07T05:27:22;75.90;;;49.85;;
51838;SDS011;37886;53.174;6.368;2023-05-07T05:29:48;74.35;;;51.08;;
51838;SDS011;37886;53.174;6.368;2023-05-07T05:32:14;71.40;;;49.63;;
51838;SDS011;37886;53.174;6.368;2023-05-07T05:34:40;73.53;;;48.42;;
51838;SDS011;37886;53.174;6.368;2023-05-07T05:37:05;72.07;;;49.20;;
51838;SDS011;37886;53.174;6.368;2023-05-07T05:39:31;72.30;;;49.00;;
51838;SDS011;37886;53.174;6.368;2023-05-07T05:41:57;73.60;;;48.72;;
51838;SDS011;37886;53.174;6.368;2023-05-07T05:44:22;71.05;;;48.85;;
51838;SDS011;37886;53.174;6.368;2023-05-07T05:46:48;67.97;;;48.60;;
51838;SDS011;37886;53.174;6.368;2023-05-07T05:49:17;65.78;;;46.75;;
51838;SDS011;37886;53.174;6.368;2023-05-07T05:51:42;70.22;;;48.58;;
51838;SDS011;37886;53.174;6.368;2023-05-07T05:54:08;64.13;;;45.17;;
51838;SDS011;37886;53.174;6.368;2023-05-07T05:56:34;68.47;;;46.40;;
51838;SDS011;37886;53.174;6.368;2023-05-07T05:59:00;60.75;;;44.50;;
51838;SDS011;37886;53.174;6.368;2023-05-07T06:01:25;67.47;;;46.83;;
51838;SDS011;37886;53.174;6.368;2023-05-07T06:03:51;63.72;;;46.08;;
51838;SDS011;37886;53.174;6.368;2023-05-07T06:06:17;62.78;;;43.58;;
51838;SDS011;37886;53.174;6.368;2023-05-07T06:08:43;66.32;;;45.10;;
51838;SDS011;37886;53.174;6.368;2023-05-07T06:11:08;61.40;;;42.80;;
51838;SDS011;37886;53.174;6.368;2023-05-07T06:13:34;60.17;;;44.25;;
51838;SDS011;37886;53.174;6.368;2023-05-07T06:16:00;59.08;;;42.45;;
51838;SDS011;37886;53.174;6.368;2023-05-07T06:18:25;56.85;;;42.58;;
51838;SDS011;37886;53.174;6.368;2023-05-07T06:20:51;60.45;;;43.13;;
51838;SDS011;37886;53.174;6.368;2023-05-07T06:23:18;58.35;;;44.15;;
51838;SDS011;37886;53.174;6.368;2023-05-07T06:25:49;57.22;;;42.95;;
51838;SDS011;37886;53.174;6.368;2023-05-07T06:28:16;60.45;;;43.10;;
51838;SDS011;37886;53.174;6.368;2023-05-07T06:30:42;59.00;;;43.15;;
51838;SDS011;37886;53.174;6.368;2023-05-07T06:33:07;56.13;;;42.58;;
51838;SDS011;37886;53.174;6.368;2023-05-07T06:35:33;63.47;;;43.17;;
51838;SDS011;37886;53.174;6.368;2023-05-07T06:37:59;56.22;;;42.10;;
51838;SDS011;37886;53.174;6.368;2023-05-07T06:40:25;53.78;;;40.13;;
51838;SDS011;37886;53.174;6.368;2023-05-07T06:42:51;52.20;;;39.33;;
51838;SDS011;37886;53.174;6.368;2023-05-07T06:45:17;52.03;;;39.30;;
51838;SDS011;37886;53.174;6.368;2023-05-07T06:47:43;53.80;;;39.83;;
51838;SDS011;37886;53.174;6.368;2023-05-07T06:50:08;50.72;;;40.20;;
51838;SDS011;37886;53.174;6.368;2023-05-07T06:52:34;51.10;;;39.05;;
51838;SDS011;37886;53.174;6.368;2023-05-07T06:55:00;51.55;;;38.28;;
51838;SDS011;37886;53.174;6.368;2023-05-07T06:57:26;51.58;;;39.33;;
51838;SDS011;37886;53.174;6.368;2023-05-07T06:59:52;47.80;;;39.10;;
51838;SDS011;37886;53.174;6.368;2023-05-07T07:02:18;47.75;;;37.47;;
51838;SDS011;37886;53.174;6.368;2023-05-07T07:04:43;45.83;;;35.75;;
51838;SDS011;37886;53.174;6.368;2023-05-07T07:07:10;53.80;;;39.17;;
51838;SDS011;37886;53.174;6.368;2023-05-07T07:09:36;46.63;;;35.83;;
51838;SDS011;37886;53.174;6.368;2023-05-07T07:12:02;48.65;;;37.63;;
51838;SDS011;37886;53.174;6.368;2023-05-07T07:14:27;49.30;;;36.78;;
51838;SDS011;37886;53.174;6.368;2023-05-07T07:16:53;47.08;;;37.17;;
51838;SDS011;37886;53.174;6.368;2023-05-07T07:19:19;47.75;;;38.28;;
51838;SDS011;37886;53.174;6.368;2023-05-07T07:21:45;53.80;;;39.55;;
51838;SDS011;37886;53.174;6.368;2023-05-07T07:24:13;49.28;;;39.28;;
51838;SDS011;37886;53.174;6.368;2023-05-07T07:26:44;49.78;;;37.97;;
51838;SDS011;37886;53.174;6.368;2023-05-07T07:29:09;50.38;;;37.30;;
51838;SDS011;37886;53.174;6.368;2023-05-07T07:31:35;49.90;;;37.55;;
51838;SDS011;37886;53.174;6.368;2023-05-07T07:34:01;47.30;;;39.60;;
51838;SDS011;37886;53.174;6.368;2023-05-07T07:36:26;47.40;;;36.88;;
51838;SDS011;37886;53.174;6.368;2023-05-07T07:38:53;47.80;;;37.33;;
51838;SDS011;37886;53.174;6.368;2023-05-07T07:41:18;46.25;;;36.80;;
51838;SDS011;37886;53.174;6.368;2023-05-07T07:43:44;44.38;;;36.03;;
51838;SDS011;37886;53.174;6.368;2023-05-07T07:46:11;46.58;;;37.33;;
51838;SDS011;37886;53.174;6.368;2023-05-07T07:48:37;50.97;;;38.75;;
51838;SDS011;37886;53.174;6.368;2023-05-07T07:51:03;50.63;;;38.85;;
51838;SDS011;37886;53.174;6.368;2023-05-07T07:53:29;48.70;;;37.35;;
51838;SDS011;37886;53.174;6.368;2023-05-07T07:55:55;50.25;;;37.85;;
51838;SDS011;37886;53.174;6.368;2023-05-07T07:58:21;48.58;;;36.90;;
51838;SDS011;37886;53.174;6.368;2023-05-07T08:00:47;48.80;;;36.92;;
51838;SDS011;37886;53.174;6.368;2023-05-07T08:03:13;51.42;;;37.05;;
51838;SDS011;37886;53.174;6.368;2023-05-07T08:05:41;48.63;;;37.75;;
51838;SDS011;37886;53.174;6.368;2023-05-07T08:08:07;50.97;;;38.30;;
51838;SDS011;37886;53.174;6.368;2023-05-07T08:10:33;47.35;;;36.53;;
51838;SDS011;37886;53.174;6.368;2023-05-07T08:12:59;50.08;;;36.75;;
51838;SDS011;37886;53.174;6.368;2023-05-07T08:15:26;43.75;;;35.78;;
51838;SDS011;37886;53.174;6.368;2023-05-07T08:17:51;46.33;;;35.88;;
51838;SDS011;37886;53.174;6.368;2023-05-07T08:20:17;47.83;;;37.95;;
51838;SDS011;37886;53.174;6.368;2023-05-07T08:22:43;44.47;;;36.88;;
51838;SDS011;37886;53.174;6.368;2023-05-07T08:25:09;48.85;;;36.65;;
51838;SDS011;37886;53.174;6.368;2023-05-07T08:27:34;44.90;;;37.00;;
51838;SDS011;37886;53.174;6.368;2023-05-07T08:30:00;49.38;;;36.72;;
51838;SDS011;37886;53.174;6.368;2023-05-07T08:32:29;42.72;;;35.90;;
51838;SDS011;37886;53.174;6.368;2023-05-07T08:34:54;48.25;;;37.08;;
51838;SDS011;37886;53.174;6.368;2023-05-07T08:37:20;46.33;;;34.88;;
51838;SDS011;37886;53.174;6.368;2023-05-07T08:39:46;44.33;;;35.53;;
51838;SDS011;37886;53.174;6.368;2023-05-07T08:42:11;46.50;;;35.53;;
51838;SDS011;37886;53.174;6.368;2023-05-07T08:44:41;44.95;;;35.00;;
51838;SDS011;37886;53.174;6.368;2023-05-07T08:47:13;41.60;;;34.85;;
51838;SDS011;37886;53.174;6.368;2023-05-07T08:49:39;46.83;;;35.70;;
51838;SDS011;37886;53.174;6.368;2023-05-07T08:52:05;44.58;;;35.78;;
51838;SDS011;37886;53.174;6.368;2023-05-07T08:54:31;40.97;;;33.70;;
51838;SDS011;37886;53.174;6.368;2023-05-07T08:56:57;41.97;;;34.22;;
51838;SDS011;37886;53.174;6.368;2023-05-07T08:59:23;41.30;;;33.47;;
51838;SDS011;37886;53.174;6.368;2023-05-07T09:01:48;38.83;;;33.67;;
51838;SDS011;37886;53.174;6.368;2023-05-07T09:04:14;42.17;;;35.50;;
51838;SDS011;37886;53.174;6.368;2023-05-07T09:06:40;42.40;;;33.83;;
51838;SDS011;37886;53.174;6.368;2023-05-07T09:09:07;43.30;;;35.25;;
51838;SDS011;37886;53.174;6.368;2023-05-07T09:11:33;43.58;;;34.80;;
51838;SDS011;37886;53.174;6.368;2023-05-07T09:13:59;42.92;;;34.33;;
51838;SDS011;37886;53.174;6.368;2023-05-07T09:16:26;43.30;;;35.10;;
51838;SDS011;37886;53.174;6.368;2023-05-07T09:18:54;44.42;;;34.55;;
51838;SDS011;37886;53.174;6.368;2023-05-07T09:21:20;45.10;;;35.78;;
51838;SDS011;37886;53.174;6.368;2023-05-07T09:23:48;39.83;;;33.75;;
51838;SDS011;37886;53.174;6.368;2023-05-07T09:26:15;43.40;;;35.10;;
51838;SDS011;37886;53.174;6.368;2023-05-07T09:28:41;38.25;;;32.13;;
51838;SDS011;37886;53.174;6.368;2023-05-07T09:31:07;37.30;;;32.45;;
51838;SDS011;37886;53.174;6.368;2023-05-07T09:33:34;38.30;;;32.30;;
51838;SDS011;37886;53.174;6.368;2023-05-07T09:36:03;36.33;;;31.08;;
51838;SDS011;37886;53.174;6.368;2023-05-07T09:38:30;37.47;;;31.65;;
51838;SDS011;37886;53.174;6.368;2023-05-07T09:41:01;39.95;;;31.23;;
51838;SDS011;37886;53.174;6.368;2023-05-07T09:43:32;36.17;;;31.33;;
51838;SDS011;37886;53.174;6.368;2023-05-07T09:46:02;37.40;;;31.25;;
51838;SDS011;37886;53.174;6.368;2023-05-07T09:48:29;33.90;;;29.45;;
51838;SDS011;37886;53.174;6.368;2023-05-07T09:50:55;34.40;;;30.35;;
51838;SDS011;37886;53.174;6.368;2023-05-07T09:53:24;39.22;;;30.85;;
51838;SDS011;37886;53.174;6.368;2023-05-07T09:55:51;36.67;;;30.98;;
51838;SDS011;37886;53.174;6.368;2023-05-07T09:58:18;35.83;;;29.77;;
51838;SDS011;37886;53.174;6.368;2023-05-07T10:00:44;34.33;;;29.70;;
51838;SDS011;37886;53.174;6.368;2023-05-07T10:03:10;35.03;;;29.85;;
51838;SDS011;37886;53.174;6.368;2023-05-07T10:05:37;36.47;;;29.25;;
51838;SDS011;37886;53.174;6.368;2023-05-07T10:08:04;32.88;;;28.90;;
51838;SDS011;37886;53.174;6.368;2023-05-07T10:10:32;36.53;;;30.65;;
51838;SDS011;37886;53.174;6.368;2023-05-07T10:12:58;34.10;;;28.83;;
51838;SDS011;37886;53.174;6.368;2023-05-07T10:15:25;36.85;;;29.65;;
51838;SDS011;37886;53.174;6.368;2023-05-07T10:17:53;31.85;;;28.42;;
51838;SDS011;37886;53.174;6.368;2023-05-07T10:20:19;35.83;;;28.40;;
51838;SDS011;37886;53.174;6.368;2023-05-07T10:22:45;33.88;;;29.00;;
51838;SDS011;37886;53.174;6.368;2023-05-07T10:25:17;31.77;;;28.00;;
51838;SDS011;37886;53.174;6.368;2023-05-07T10:27:48;38.53;;;28.52;;
51838;SDS011;37886;53.174;6.368;2023-05-07T10:33:23;32.63;;;25.70;;
51838;SDS011;37886;53.174;6.368;2023-05-07T10:35:51;30.83;;;27.30;;
51838;SDS011;37886;53.174;6.368;2023-05-07T10:38:23;34.38;;;28.38;;
51838;SDS011;37886;53.174;6.368;2023-05-07T10:40:50;28.70;;;25.63;;
51838;SDS011;37886;53.174;6.368;2023-05-07T10:43:16;32.08;;;27.15;;
51838;SDS011;37886;53.174;6.368;2023-05-07T10:45:42;31.55;;;26.23;;
51838;SDS011;37886;53.174;6.368;2023-05-07T10:50:38;29.83;;;26.63;;
51838;SDS011;37886;53.174;6.368;2023-05-07T10:55:47;29.30;;;26.17;;
51838;SDS011;37886;53.174;6.368;2023-05-07T10:58:27;28.95;;;25.85;;
51838;SDS011;37886;53.174;6.368;2023-05-07T11:00:57;27.70;;;24.50;;
51838;SDS011;37886;53.174;6.368;2023-05-07T11:03:27;29.67;;;25.58;;
51838;SDS011;37886;53.174;6.368;2023-05-07T11:06:35;27.00;;;24.05;;
51838;SDS011;37886;53.174;6.368;2023-05-07T11:11:18;30.17;;;25.10;;
51838;SDS011;37886;53.174;6.368;2023-05-07T11:13:47;26.75;;;23.98;;
51838;SDS011;37886;53.174;6.368;2023-05-07T11:16:23;27.48;;;24.58;;
51838;SDS011;37886;53.174;6.368;2023-05-07T11:18:54;27.20;;;24.50;;
51838;SDS011;37886;53.174;6.368;2023-05-07T11:21:33;25.13;;;22.58;;
51838;SDS011;37886;53.174;6.368;2023-05-07T11:24:01;24.10;;;21.58;;
51838;SDS011;37886;53.174;6.368;2023-05-07T11:26:29;24.73;;;22.23;;
51838;SDS011;37886;53.174;6.368;2023-05-07T11:28:56;26.02;;;23.35;;
51838;SDS011;37886;53.174;6.368;2023-05-07T11:31:24;25.45;;;22.85;;
51838;SDS011;37886;53.174;6.368;2023-05-07T11:33:53;24.75;;;22.17;;
51838;SDS011;37886;53.174;6.368;2023-05-07T11:36:21;24.88;;;22.17;;
51838;SDS011;37886;53.174;6.368;2023-05-07T11:38:48;24.15;;;21.52;;
51838;SDS011;37886;53.174;6.368;2023-05-07T11:41:14;25.80;;;22.50;;
51838;SDS011;37886;53.174;6.368;2023-05-07T11:43:54;23.10;;;20.80;;
51838;SDS011;37886;53.174;6.368;2023-05-07T11:46:23;26.08;;;21.00;;
51838;SDS011;37886;53.174;6.368;2023-05-07T11:48:49;24.60;;;22.15;;
51838;SDS011;37886;53.174;6.368;2023-05-07T11:51:18;25.27;;;21.02;;
51838;SDS011;37886;53.174;6.368;2023-05-07T11:53:48;23.88;;;21.52;;
51838;SDS011;37886;53.174;6.368;2023-05-07T11:56:16;23.80;;;21.23;;
51838;SDS011;37886;53.174;6.368;2023-05-07T11:58:43;23.13;;;20.95;;
51838;SDS011;37886;53.174;6.368;2023-05-07T12:01:11;23.77;;;21.35;;
51838;SDS011;37886;53.174;6.368;2023-05-07T12:03:42;22.55;;;20.38;;
51838;SDS011;37886;53.174;6.368;2023-05-07T12:06:09;23.17;;;20.45;;
51838;SDS011;37886;53.174;6.368;2023-05-07T12:08:37;27.35;;;24.77;;
51838;SDS011;37886;53.174;6.368;2023-05-07T12:11:07;24.23;;;21.60;;
51838;SDS011;37886;53.174;6.368;2023-05-07T12:13:34;24.48;;;21.98;;
51838;SDS011;37886;53.174;6.368;2023-05-07T12:16:00;24.33;;;20.90;;
51838;SDS011;37886;53.174;6.368;2023-05-07T12:18:28;23.05;;;20.50;;
51838;SDS011;37886;53.174;6.368;2023-05-07T12:20:54;22.92;;;20.73;;
51838;SDS011;37886;53.174;6.368;2023-05-07T12:23:21;23.15;;;20.95;;
51838;SDS011;37886;53.174;6.368;2023-05-07T12:25:47;21.80;;;19.67;;
51838;SDS011;37886;53.174;6.368;2023-05-07T12:28:17;22.75;;;20.50;;
51838;SDS011;37886;53.174;6.368;2023-05-07T12:30:44;23.33;;;21.02;;
51838;SDS011;37886;53.174;6.368;2023-05-07T12:33:11;22.90;;;20.67;;
51838;SDS011;37886;53.174;6.368;2023-05-07T12:35:39;22.65;;;20.50;;
51838;SDS011;37886;53.174;6.368;2023-05-07T12:38:16;21.65;;;19.55;;
51838;SDS011;37886;53.174;6.368;2023-05-07T12:40:43;21.48;;;19.27;;
51838;SDS011;37886;53.174;6.368;2023-05-07T12:43:16;22.55;;;20.33;;
51838;SDS011;37886;53.174;6.368;2023-05-07T12:45:49;23.52;;;21.02;;
51838;SDS011;37886;53.174;6.368;2023-05-07T12:48:15;23.35;;;20.90;;
51838;SDS011;37886;53.174;6.368;2023-05-07T12:50:41;22.70;;;20.42;;
51838;SDS011;37886;53.174;6.368;2023-05-07T12:53:08;21.88;;;19.77;;
51838;SDS011;37886;53.174;6.368;2023-05-07T12:55:49;21.65;;;19.40;;
51838;SDS011;37886;53.174;6.368;2023-05-07T12:58:20;24.15;;;18.67;;
51838;SDS011;37886;53.174;6.368;2023-05-07T13:00:50;20.95;;;18.95;;
51838;SDS011;37886;53.174;6.368;2023-05-07T13:03:23;20.40;;;18.50;;
51838;SDS011;37886;53.174;6.368;2023-05-07T13:05:55;21.17;;;18.98;;
51838;SDS011;37886;53.174;6.368;2023-05-07T13:08:32;20.52;;;18.73;;
51838;SDS011;37886;53.174;6.368;2023-05-07T13:11:00;20.27;;;18.17;;
51838;SDS011;37886;53.174;6.368;2023-05-07T13:13:29;20.30;;;18.30;;
51838;SDS011;37886;53.174;6.368;2023-05-07T13:15:55;19.83;;;17.92;;
51838;SDS011;37886;53.174;6.368;2023-05-07T13:18:21;20.38;;;18.27;;
51838;SDS011;37886;53.174;6.368;2023-05-07T13:20:47;19.65;;;17.75;;
51838;SDS011;37886;53.174;6.368;2023-05-07T13:23:12;20.35;;;18.45;;
51838;SDS011;37886;53.174;6.368;2023-05-07T13:25:38;20.40;;;18.45;;
51838;SDS011;37886;53.174;6.368;2023-05-07T13:28:05;20.42;;;18.63;;
51838;SDS011;37886;53.174;6.368;2023-05-07T13:30:30;22.85;;;20.80;;
51838;SDS011;37886;53.174;6.368;2023-05-07T13:32:56;21.27;;;19.38;;
51838;SDS011;37886;53.174;6.368;2023-05-07T13:35:22;21.38;;;19.48;;
51838;SDS011;37886;53.174;6.368;2023-05-07T13:37:47;21.70;;;19.80;;
51838;SDS011;37886;53.174;6.368;2023-05-07T13:40:14;22.63;;;20.73;;
51838;SDS011;37886;53.174;6.368;2023-05-07T13:42:40;22.23;;;20.17;;
51838;SDS011;37886;53.174;6.368;2023-05-07T13:45:06;20.42;;;18.52;;
51838;SDS011;37886;53.174;6.368;2023-05-07T13:47:33;23.48;;;21.33;;
51838;SDS011;37886;53.174;6.368;2023-05-07T13:49:59;22.65;;;20.67;;
51838;SDS011;37886;53.174;6.368;2023-05-07T13:52:24;22.50;;;20.50;;
51838;SDS011;37886;53.174;6.368;2023-05-07T13:54:50;24.30;;;22.30;;
51838;SDS011;37886;53.174;6.368;2023-05-07T13:57:17;22.90;;;20.83;;
51838;SDS011;37886;53.174;6.368;2023-05-07T13:59:43;22.05;;;20.17;;
51838;SDS011;37886;53.174;6.368;2023-05-07T14:02:09;21.60;;;19.70;;
51838;SDS011;37886;53.174;6.368;2023-05-07T14:04:35;22.30;;;20.20;;
51838;SDS011;37886;53.174;6.368;2023-05-07T14:07:02;20.70;;;18.70;;
51838;SDS011;37886;53.174;6.368;2023-05-07T14:09:28;22.05;;;19.85;;
51838;SDS011;37886;53.174;6.368;2023-05-07T14:11:53;22.25;;;20.25;;
51838;SDS011;37886;53.174;6.368;2023-05-07T14:14:19;21.90;;;20.10;;
51838;SDS011;37886;53.174;6.368;2023-05-07T14:16:45;19.98;;;18.27;;
51838;SDS011;37886;53.174;6.368;2023-05-07T14:19:11;22.90;;;20.80;;
51838;SDS011;37886;53.174;6.368;2023-05-07T14:21:37;21.92;;;19.77;;
51838;SDS011;37886;53.174;6.368;2023-05-07T14:24:03;21.60;;;19.55;;
51838;SDS011;37886;53.174;6.368;2023-05-07T14:26:30;22.83;;;20.65;;
51838;SDS011;37886;53.174;6.368;2023-05-07T14:28:56;21.15;;;19.25;;